sensor_id;sensor_type;location;lat;lon;timestamp;pressure;altitude;pressure_sealevel;temperature
20733;BMP180;10527;52.124;5.196;2022-08-03T00:01:37;101414.00;;;32.30
20733;BMP180;10527;52.124;5.196;2022-08-03T00:04:07;101416.00;;;32.20
20733;BMP180;10527;52.124;5.196;2022-08-03T00:06:37;101418.00;;;32.20
20733;BMP180;10527;52.124;5.196;2022-08-03T00:09:05;101407.00;;;32.20
20733;BMP180;10527;52.124;5.196;2022-08-03T00:11:32;101415.00;;;32.20
20733;BMP180;10527;52.124;5.196;2022-08-03T00:13:59;101410.00;;;32.20
20733;BMP180;10527;52.124;5.196;2022-08-03T00:16:26;101411.00;;;32.20
20733;BMP180;10527;52.124;5.196;2022-08-03T00:18:53;101410.00;;;32.20
20733;BMP180;10527;52.124;5.196;2022-08-03T00:21:20;101410.00;;;32.10
20733;BMP180;10527;52.124;5.196;2022-08-03T00:23:47;101414.00;;;32.10
20733;BMP180;10527;52.124;5.196;2022-08-03T00:26:19;101414.00;;;32.10
20733;BMP180;10527;52.124;5.196;2022-08-03T00:28:48;101409.00;;;32.10
20733;BMP180;10527;52.124;5.196;2022-08-03T00:31:15;101414.00;;;32.10
20733;BMP180;10527;52.124;5.196;2022-08-03T00:33:48;101412.00;;;32.10
20733;BMP180;10527;52.124;5.196;2022-08-03T00:36:27;101411.00;;;32.10
20733;BMP180;10527;52.124;5.196;2022-08-03T00:38:56;101413.00;;;32.10
20733;BMP180;10527;52.124;5.196;2022-08-03T00:41:23;101414.00;;;32.10
20733;BMP180;10527;52.124;5.196;2022-08-03T00:43:50;101407.00;;;32.10
20733;BMP180;10527;52.124;5.196;2022-08-03T00:46:16;101398.00;;;32.10
20733;BMP180;10527;52.124;5.196;2022-08-03T00:48:51;101397.00;;;32.00
20733;BMP180;10527;52.124;5.196;2022-08-03T00:51:20;101399.00;;;32.10
20733;BMP180;10527;52.124;5.196;2022-08-03T00:53:48;101388.00;;;32.10
20733;BMP180;10527;52.124;5.196;2022-08-03T00:56:17;101399.00;;;32.00
20733;BMP180;10527;52.124;5.196;2022-08-03T00:58:46;101394.00;;;32.00
20733;BMP180;10527;52.124;5.196;2022-08-03T01:01:14;101398.00;;;32.00
20733;BMP180;10527;52.124;5.196;2022-08-03T01:03:43;101395.00;;;32.00
20733;BMP180;10527;52.124;5.196;2022-08-03T01:06:19;101392.00;;;32.00
20733;BMP180;10527;52.124;5.196;2022-08-03T01:09:26;101397.00;;;32.00
20733;BMP180;10527;52.124;5.196;2022-08-03T01:12:47;101400.00;;;32.00
20733;BMP180;10527;52.124;5.196;2022-08-03T01:15:42;101397.00;;;32.00
20733;BMP180;10527;52.124;5.196;2022-08-03T01:19:01;101402.00;;;31.90
20733;BMP180;10527;52.124;5.196;2022-08-03T01:21:36;101387.00;;;31.90
20733;BMP180;10527;52.124;5.196;2022-08-03T01:30:11;101381.00;;;31.80
20733;BMP180;10527;52.124;5.196;2022-08-03T01:32:49;101391.00;;;31.70
20733;BMP180;10527;52.124;5.196;2022-08-03T01:38:15;101385.00;;;31.70
20733;BMP180;10527;52.124;5.196;2022-08-03T01:40:46;101384.00;;;31.70
20733;BMP180;10527;52.124;5.196;2022-08-03T01:43:22;101386.00;;;31.70
20733;BMP180;10527;52.124;5.196;2022-08-03T01:46:11;101378.00;;;31.70
20733;BMP180;10527;52.124;5.196;2022-08-03T01:48:42;101379.00;;;31.70
20733;BMP180;10527;52.124;5.196;2022-08-03T01:51:14;101378.00;;;31.70
20733;BMP180;10527;52.124;5.196;2022-08-03T01:53:43;101370.00;;;31.70
20733;BMP180;10527;52.124;5.196;2022-08-03T01:56:11;101380.00;;;31.70
20733;BMP180;10527;52.124;5.196;2022-08-03T01:58:41;101377.00;;;31.70
20733;BMP180;10527;52.124;5.196;2022-08-03T02:01:12;101374.00;;;31.70
20733;BMP180;10527;52.124;5.196;2022-08-03T02:03:44;101366.00;;;31.70
20733;BMP180;10527;52.124;5.196;2022-08-03T02:06:31;101369.00;;;31.70
20733;BMP180;10527;52.124;5.196;2022-08-03T02:09:21;101364.00;;;31.60
20733;BMP180;10527;52.124;5.196;2022-08-03T02:11:51;101373.00;;;31.60
20733;BMP180;10527;52.124;5.196;2022-08-03T02:14:22;101366.00;;;31.50
20733;BMP180;10527;52.124;5.196;2022-08-03T02:16:50;101369.00;;;31.50
20733;BMP180;10527;52.124;5.196;2022-08-03T02:19:18;101367.00;;;31.40
20733;BMP180;10527;52.124;5.196;2022-08-03T02:21:45;101365.00;;;31.40
20733;BMP180;10527;52.124;5.196;2022-08-03T02:24:28;101366.00;;;31.40
20733;BMP180;10527;52.124;5.196;2022-08-03T02:26:57;101363.00;;;31.30
20733;BMP180;10527;52.124;5.196;2022-08-03T02:29:32;101364.00;;;31.30
20733;BMP180;10527;52.124;5.196;2022-08-03T02:32:11;101367.00;;;31.30
20733;BMP180;10527;52.124;5.196;2022-08-03T02:34:45;101362.00;;;31.30
20733;BMP180;10527;52.124;5.196;2022-08-03T02:37:17;101366.00;;;31.20
20733;BMP180;10527;52.124;5.196;2022-08-03T02:39:46;101359.00;;;31.20
20733;BMP180;10527;52.124;5.196;2022-08-03T02:42:17;101347.00;;;31.10
20733;BMP180;10527;52.124;5.196;2022-08-03T02:44:50;101349.00;;;31.10
20733;BMP180;10527;52.124;5.196;2022-08-03T02:47:20;101349.00;;;31.10
20733;BMP180;10527;52.124;5.196;2022-08-03T02:49:49;101349.00;;;31.10
20733;BMP180;10527;52.124;5.196;2022-08-03T02:52:27;101356.00;;;31.10
20733;BMP180;10527;52.124;5.196;2022-08-03T02:54:58;101337.00;;;31.00
20733;BMP180;10527;52.124;5.196;2022-08-03T02:57:29;101344.00;;;31.00
20733;BMP180;10527;52.124;5.196;2022-08-03T02:59:58;101345.00;;;31.10
20733;BMP180;10527;52.124;5.196;2022-08-03T03:02:27;101336.00;;;31.10
20733;BMP180;10527;52.124;5.196;2022-08-03T03:04:57;101345.00;;;31.00
20733;BMP180;10527;52.124;5.196;2022-08-03T03:07:45;101339.00;;;31.00
20733;BMP180;10527;52.124;5.196;2022-08-03T03:10:23;101334.00;;;31.00
20733;BMP180;10527;52.124;5.196;2022-08-03T03:12:56;101335.00;;;30.90
20733;BMP180;10527;52.124;5.196;2022-08-03T03:15:26;101328.00;;;30.90
20733;BMP180;10527;52.124;5.196;2022-08-03T03:17:54;101324.00;;;30.80
20733;BMP180;10527;52.124;5.196;2022-08-03T03:20:24;101332.00;;;30.80
20733;BMP180;10527;52.124;5.196;2022-08-03T03:22:58;101331.00;;;30.80
20733;BMP180;10527;52.124;5.196;2022-08-03T03:25:36;101326.00;;;30.80
20733;BMP180;10527;52.124;5.196;2022-08-03T03:28:04;101332.00;;;30.80
20733;BMP180;10527;52.124;5.196;2022-08-03T03:30:33;101329.00;;;30.80
20733;BMP180;10527;52.124;5.196;2022-08-03T03:33:03;101335.00;;;30.80
20733;BMP180;10527;52.124;5.196;2022-08-03T03:35:31;101334.00;;;30.80
20733;BMP180;10527;52.124;5.196;2022-08-03T03:38:06;101328.00;;;30.80
20733;BMP180;10527;52.124;5.196;2022-08-03T03:40:37;101330.00;;;30.80
20733;BMP180;10527;52.124;5.196;2022-08-03T03:43:09;101338.00;;;30.80
20733;BMP180;10527;52.124;5.196;2022-08-03T03:45:39;101338.00;;;30.80
20733;BMP180;10527;52.124;5.196;2022-08-03T03:48:07;101336.00;;;30.80
20733;BMP180;10527;52.124;5.196;2022-08-03T03:50:37;101331.00;;;30.80
20733;BMP180;10527;52.124;5.196;2022-08-03T03:53:11;101332.00;;;30.80
20733;BMP180;10527;52.124;5.196;2022-08-03T03:55:39;101337.00;;;30.80
20733;BMP180;10527;52.124;5.196;2022-08-03T03:58:27;101334.00;;;30.70
20733;BMP180;10527;52.124;5.196;2022-08-03T04:00:54;101333.00;;;30.70
20733;BMP180;10527;52.124;5.196;2022-08-03T04:03:22;101337.00;;;30.70
20733;BMP180;10527;52.124;5.196;2022-08-03T04:05:49;101334.00;;;30.70
20733;BMP180;10527;52.124;5.196;2022-08-03T04:08:35;101333.00;;;30.70
20733;BMP180;10527;52.124;5.196;2022-08-03T04:12:10;101331.00;;;30.60
20733;BMP180;10527;52.124;5.196;2022-08-03T04:14:34;101338.00;;;30.60
20733;BMP180;10527;52.124;5.196;2022-08-03T04:17:13;101341.00;;;30.60
20733;BMP180;10527;52.124;5.196;2022-08-03T04:19:52;101341.00;;;30.60
20733;BMP180;10527;52.124;5.196;2022-08-03T04:22:26;101340.00;;;30.60
20733;BMP180;10527;52.124;5.196;2022-08-03T04:25:02;101345.00;;;30.60
20733;BMP180;10527;52.124;5.196;2022-08-03T04:27:37;101348.00;;;30.60
20733;BMP180;10527;52.124;5.196;2022-08-03T04:30:07;101340.00;;;30.60
20733;BMP180;10527;52.124;5.196;2022-08-03T04:32:37;101336.00;;;30.60
20733;BMP180;10527;52.124;5.196;2022-08-03T04:35:11;101341.00;;;30.50
20733;BMP180;10527;52.124;5.196;2022-08-03T04:37:47;101332.00;;;30.50
20733;BMP180;10527;52.124;5.196;2022-08-03T04:40:34;101338.00;;;30.40
20733;BMP180;10527;52.124;5.196;2022-08-03T04:43:04;101336.00;;;30.40
20733;BMP180;10527;52.124;5.196;2022-08-03T04:45:33;101351.00;;;30.40
20733;BMP180;10527;52.124;5.196;2022-08-03T04:48:03;101342.00;;;30.40
20733;BMP180;10527;52.124;5.196;2022-08-03T04:50:30;101343.00;;;30.30
20733;BMP180;10527;52.124;5.196;2022-08-03T04:52:58;101345.00;;;30.30
20733;BMP180;10527;52.124;5.196;2022-08-03T04:55:46;101356.00;;;30.30
20733;BMP180;10527;52.124;5.196;2022-08-03T04:58:12;101351.00;;;30.30
20733;BMP180;10527;52.124;5.196;2022-08-03T05:00:39;101358.00;;;30.30
20733;BMP180;10527;52.124;5.196;2022-08-03T05:03:06;101358.00;;;30.30
20733;BMP180;10527;52.124;5.196;2022-08-03T05:05:52;101351.00;;;30.30
20733;BMP180;10527;52.124;5.196;2022-08-03T05:08:28;101352.00;;;30.30
20733;BMP180;10527;52.124;5.196;2022-08-03T05:10:55;101357.00;;;30.40
20733;BMP180;10527;52.124;5.196;2022-08-03T05:13:25;101361.00;;;30.30
20733;BMP180;10527;52.124;5.196;2022-08-03T05:15:54;101373.00;;;30.30
20733;BMP180;10527;52.124;5.196;2022-08-03T05:18:21;101371.00;;;30.30
20733;BMP180;10527;52.124;5.196;2022-08-03T05:20:48;101373.00;;;30.30
20733;BMP180;10527;52.124;5.196;2022-08-03T05:23:15;101377.00;;;30.30
20733;BMP180;10527;52.124;5.196;2022-08-03T05:25:42;101376.00;;;30.30
20733;BMP180;10527;52.124;5.196;2022-08-03T05:28:15;101375.00;;;30.30
20733;BMP180;10527;52.124;5.196;2022-08-03T05:30:43;101375.00;;;30.30
20733;BMP180;10527;52.124;5.196;2022-08-03T05:33:10;101380.00;;;30.20
20733;BMP180;10527;52.124;5.196;2022-08-03T05:35:37;101382.00;;;30.20
20733;BMP180;10527;52.124;5.196;2022-08-03T05:38:25;101381.00;;;30.20
20733;BMP180;10527;52.124;5.196;2022-08-03T05:41:02;101382.00;;;30.20
20733;BMP180;10527;52.124;5.196;2022-08-03T05:43:55;101385.00;;;30.20
20733;BMP180;10527;52.124;5.196;2022-08-03T05:46:22;101377.00;;;30.20
20733;BMP180;10527;52.124;5.196;2022-08-03T05:48:49;101386.00;;;30.20
20733;BMP180;10527;52.124;5.196;2022-08-03T05:51:16;101381.00;;;30.20
20733;BMP180;10527;52.124;5.196;2022-08-03T05:53:44;101384.00;;;30.20
20733;BMP180;10527;52.124;5.196;2022-08-03T05:56:11;101377.00;;;30.10
20733;BMP180;10527;52.124;5.196;2022-08-03T05:58:45;101374.00;;;30.10
20733;BMP180;10527;52.124;5.196;2022-08-03T06:01:15;101378.00;;;30.10
20733;BMP180;10527;52.124;5.196;2022-08-03T06:03:44;101381.00;;;30.10
20733;BMP180;10527;52.124;5.196;2022-08-03T06:06:12;101379.00;;;30.10
20733;BMP180;10527;52.124;5.196;2022-08-03T06:08:40;101374.00;;;30.10
20733;BMP180;10527;52.124;5.196;2022-08-03T06:11:07;101378.00;;;30.00
20733;BMP180;10527;52.124;5.196;2022-08-03T06:13:35;101375.00;;;30.10
20733;BMP180;10527;52.124;5.196;2022-08-03T06:16:03;101380.00;;;30.10
20733;BMP180;10527;52.124;5.196;2022-08-03T06:18:30;101379.00;;;30.10
20733;BMP180;10527;52.124;5.196;2022-08-03T06:20:56;101390.00;;;30.10
20733;BMP180;10527;52.124;5.196;2022-08-03T06:23:39;101384.00;;;30.10
20733;BMP180;10527;52.124;5.196;2022-08-03T06:26:21;101381.00;;;30.10
20733;BMP180;10527;52.124;5.196;2022-08-03T06:28:48;101381.00;;;30.20
20733;BMP180;10527;52.124;5.196;2022-08-03T06:31:21;101386.00;;;30.20
20733;BMP180;10527;52.124;5.196;2022-08-03T06:33:51;101375.00;;;30.20
20733;BMP180;10527;52.124;5.196;2022-08-03T06:36:38;101374.00;;;30.20
20733;BMP180;10527;52.124;5.196;2022-08-03T06:39:07;101369.00;;;30.30
20733;BMP180;10527;52.124;5.196;2022-08-03T06:41:34;101371.00;;;30.40
20733;BMP180;10527;52.124;5.196;2022-08-03T06:44:04;101374.00;;;30.40
20733;BMP180;10527;52.124;5.196;2022-08-03T06:46:31;101380.00;;;30.40
20733;BMP180;10527;52.124;5.196;2022-08-03T06:48:58;101373.00;;;30.40
20733;BMP180;10527;52.124;5.196;2022-08-03T06:51:24;101381.00;;;30.50
20733;BMP180;10527;52.124;5.196;2022-08-03T06:54:11;101383.00;;;30.50
20733;BMP180;10527;52.124;5.196;2022-08-03T06:56:38;101389.00;;;30.60
20733;BMP180;10527;52.124;5.196;2022-08-03T06:59:05;101389.00;;;30.60
20733;BMP180;10527;52.124;5.196;2022-08-03T07:01:31;101388.00;;;30.60
20733;BMP180;10527;52.124;5.196;2022-08-03T07:03:58;101393.00;;;30.70
20733;BMP180;10527;52.124;5.196;2022-08-03T07:06:26;101391.00;;;30.70
20733;BMP180;10527;52.124;5.196;2022-08-03T07:08:53;101385.00;;;30.70
20733;BMP180;10527;52.124;5.196;2022-08-03T07:11:25;101391.00;;;30.80
20733;BMP180;10527;52.124;5.196;2022-08-03T07:13:54;101390.00;;;30.80
20733;BMP180;10527;52.124;5.196;2022-08-03T07:16:22;101389.00;;;30.80
20733;BMP180;10527;52.124;5.196;2022-08-03T07:18:49;101392.00;;;30.90
20733;BMP180;10527;52.124;5.196;2022-08-03T07:21:15;101399.00;;;30.90
20733;BMP180;10527;52.124;5.196;2022-08-03T07:23:42;101397.00;;;30.90
20733;BMP180;10527;52.124;5.196;2022-08-03T07:26:09;101402.00;;;30.90
20733;BMP180;10527;52.124;5.196;2022-08-03T07:28:37;101404.00;;;30.90
20733;BMP180;10527;52.124;5.196;2022-08-03T07:31:04;101405.00;;;31.00
20733;BMP180;10527;52.124;5.196;2022-08-03T07:33:31;101410.00;;;31.00
20733;BMP180;10527;52.124;5.196;2022-08-03T07:35:57;101408.00;;;31.00
20733;BMP180;10527;52.124;5.196;2022-08-03T07:38:24;101406.00;;;31.10
20733;BMP180;10527;52.124;5.196;2022-08-03T07:40:53;101405.00;;;31.10
20733;BMP180;10527;52.124;5.196;2022-08-03T07:43:21;101409.00;;;31.20
20733;BMP180;10527;52.124;5.196;2022-08-03T07:45:52;101411.00;;;31.20
20733;BMP180;10527;52.124;5.196;2022-08-03T07:48:18;101413.00;;;31.20
20733;BMP180;10527;52.124;5.196;2022-08-03T07:50:45;101408.00;;;31.30
20733;BMP180;10527;52.124;5.196;2022-08-03T07:53:12;101408.00;;;31.30
20733;BMP180;10527;52.124;5.196;2022-08-03T07:55:39;101406.00;;;31.30
20733;BMP180;10527;52.124;5.196;2022-08-03T07:58:09;101418.00;;;31.40
20733;BMP180;10527;52.124;5.196;2022-08-03T08:00:38;101416.00;;;31.40
20733;BMP180;10527;52.124;5.196;2022-08-03T08:03:05;101419.00;;;31.40
20733;BMP180;10527;52.124;5.196;2022-08-03T08:05:32;101417.00;;;31.50
20733;BMP180;10527;52.124;5.196;2022-08-03T08:08:01;101411.00;;;31.50
20733;BMP180;10527;52.124;5.196;2022-08-03T08:10:28;101416.00;;;31.60
20733;BMP180;10527;52.124;5.196;2022-08-03T08:12:56;101413.00;;;31.70
20733;BMP180;10527;52.124;5.196;2022-08-03T08:15:23;101416.00;;;31.90
20733;BMP180;10527;52.124;5.196;2022-08-03T08:17:56;101420.00;;;32.20
20733;BMP180;10527;52.124;5.196;2022-08-03T08:20:27;101409.00;;;32.40
20733;BMP180;10527;52.124;5.196;2022-08-03T08:23:00;101431.00;;;32.80
20733;BMP180;10527;52.124;5.196;2022-08-03T08:25:33;101434.00;;;33.10
20733;BMP180;10527;52.124;5.196;2022-08-03T08:28:01;101437.00;;;33.40
20733;BMP180;10527;52.124;5.196;2022-08-03T08:30:50;101435.00;;;33.70
20733;BMP180;10527;52.124;5.196;2022-08-03T08:33:17;101424.00;;;33.90
20733;BMP180;10527;52.124;5.196;2022-08-03T08:35:51;101429.00;;;34.20
20733;BMP180;10527;52.124;5.196;2022-08-03T08:38:19;101428.00;;;34.40
20733;BMP180;10527;52.124;5.196;2022-08-03T08:40:48;101427.00;;;34.60
20733;BMP180;10527;52.124;5.196;2022-08-03T08:43:15;101439.00;;;34.70
20733;BMP180;10527;52.124;5.196;2022-08-03T08:45:43;101430.00;;;34.90
20733;BMP180;10527;52.124;5.196;2022-08-03T08:48:12;101431.00;;;35.10
20733;BMP180;10527;52.124;5.196;2022-08-03T08:50:40;101430.00;;;35.20
20733;BMP180;10527;52.124;5.196;2022-08-03T08:53:12;101429.00;;;35.30
20733;BMP180;10527;52.124;5.196;2022-08-03T08:55:49;101427.00;;;35.40
20733;BMP180;10527;52.124;5.196;2022-08-03T08:58:29;101430.00;;;35.60
20733;BMP180;10527;52.124;5.196;2022-08-03T09:01:00;101430.00;;;35.70
20733;BMP180;10527;52.124;5.196;2022-08-03T09:03:27;101429.00;;;35.80
20733;BMP180;10527;52.124;5.196;2022-08-03T09:05:59;101426.00;;;36.00
20733;BMP180;10527;52.124;5.196;2022-08-03T09:08:31;101431.00;;;36.10
20733;BMP180;10527;52.124;5.196;2022-08-03T09:10:59;101430.00;;;36.20
20733;BMP180;10527;52.124;5.196;2022-08-03T09:13:26;101436.00;;;36.30
20733;BMP180;10527;52.124;5.196;2022-08-03T09:16:16;101428.00;;;36.40
20733;BMP180;10527;52.124;5.196;2022-08-03T09:18:53;101431.00;;;36.60
20733;BMP180;10527;52.124;5.196;2022-08-03T09:24:05;101430.00;;;36.90
20733;BMP180;10527;52.124;5.196;2022-08-03T09:26:38;101431.00;;;37.00
20733;BMP180;10527;52.124;5.196;2022-08-03T09:29:10;101432.00;;;37.10
20733;BMP180;10527;52.124;5.196;2022-08-03T09:31:43;101433.00;;;37.10
20733;BMP180;10527;52.124;5.196;2022-08-03T09:34:14;101432.00;;;37.20
20733;BMP180;10527;52.124;5.196;2022-08-03T09:36:46;101434.00;;;37.20
20733;BMP180;10527;52.124;5.196;2022-08-03T09:39:24;101436.00;;;37.20
20733;BMP180;10527;52.124;5.196;2022-08-03T09:42:10;101436.00;;;37.20
20733;BMP180;10527;52.124;5.196;2022-08-03T09:44:49;101435.00;;;37.20
20733;BMP180;10527;52.124;5.196;2022-08-03T09:47:32;101436.00;;;37.20
20733;BMP180;10527;52.124;5.196;2022-08-03T09:50:03;101446.00;;;37.10
20733;BMP180;10527;52.124;5.196;2022-08-03T09:52:33;101440.00;;;37.10
20733;BMP180;10527;52.124;5.196;2022-08-03T09:55:19;101436.00;;;37.00
20733;BMP180;10527;52.124;5.196;2022-08-03T09:58:10;101444.00;;;37.00
20733;BMP180;10527;52.124;5.196;2022-08-03T10:01:01;101431.00;;;37.00
20733;BMP180;10527;52.124;5.196;2022-08-03T10:03:33;101431.00;;;37.00
20733;BMP180;10527;52.124;5.196;2022-08-03T10:06:24;101436.00;;;37.00
20733;BMP180;10527;52.124;5.196;2022-08-03T10:09:15;101438.00;;;37.10
20733;BMP180;10527;52.124;5.196;2022-08-03T10:11:43;101425.00;;;37.10
20733;BMP180;10527;52.124;5.196;2022-08-03T10:14:12;101428.00;;;37.10
20733;BMP180;10527;52.124;5.196;2022-08-03T10:16:47;101440.00;;;37.10
20733;BMP180;10527;52.124;5.196;2022-08-03T10:19:21;101430.00;;;37.20
20733;BMP180;10527;52.124;5.196;2022-08-03T10:21:55;101432.00;;;37.20
20733;BMP180;10527;52.124;5.196;2022-08-03T10:24:29;101432.00;;;37.20
20733;BMP180;10527;52.124;5.196;2022-08-03T10:27:10;101438.00;;;37.20
20733;BMP180;10527;52.124;5.196;2022-08-03T10:29:44;101436.00;;;37.30
20733;BMP180;10527;52.124;5.196;2022-08-03T10:32:20;101433.00;;;37.30
20733;BMP180;10527;52.124;5.196;2022-08-03T10:34:51;101425.00;;;37.30
20733;BMP180;10527;52.124;5.196;2022-08-03T10:37:29;101419.00;;;37.40
20733;BMP180;10527;52.124;5.196;2022-08-03T10:39:59;101426.00;;;37.40
20733;BMP180;10527;52.124;5.196;2022-08-03T10:42:28;101427.00;;;37.40
20733;BMP180;10527;52.124;5.196;2022-08-03T10:45:12;101436.00;;;37.50
20733;BMP180;10527;52.124;5.196;2022-08-03T10:47:40;101431.00;;;37.50
20733;BMP180;10527;52.124;5.196;2022-08-03T10:50:08;101426.00;;;37.50
20733;BMP180;10527;52.124;5.196;2022-08-03T10:55:32;101409.00;;;37.50
20733;BMP180;10527;52.124;5.196;2022-08-03T11:01:49;101419.00;;;37.60
20733;BMP180;10527;52.124;5.196;2022-08-03T11:04:26;101420.00;;;37.70
20733;BMP180;10527;52.124;5.196;2022-08-03T11:07:23;101412.00;;;37.70
20733;BMP180;10527;52.124;5.196;2022-08-03T11:09:53;101414.00;;;37.80
20733;BMP180;10527;52.124;5.196;2022-08-03T11:12:29;101409.00;;;37.80
20733;BMP180;10527;52.124;5.196;2022-08-03T11:15:05;101406.00;;;37.90
20733;BMP180;10527;52.124;5.196;2022-08-03T11:17:35;101410.00;;;38.00
20733;BMP180;10527;52.124;5.196;2022-08-03T11:20:55;101410.00;;;38.10
20733;BMP180;10527;52.124;5.196;2022-08-03T11:23:46;101410.00;;;38.20
20733;BMP180;10527;52.124;5.196;2022-08-03T11:26:32;101407.00;;;38.20
20733;BMP180;10527;52.124;5.196;2022-08-03T11:29:27;101410.00;;;38.30
20733;BMP180;10527;52.124;5.196;2022-08-03T11:31:55;101417.00;;;38.30
20733;BMP180;10527;52.124;5.196;2022-08-03T11:34:22;101415.00;;;38.40
20733;BMP180;10527;52.124;5.196;2022-08-03T11:37:23;101420.00;;;38.40
20733;BMP180;10527;52.124;5.196;2022-08-03T11:39:57;101423.00;;;38.40
20733;BMP180;10527;52.124;5.196;2022-08-03T11:44:55;101428.00;;;38.50
20733;BMP180;10527;52.124;5.196;2022-08-03T11:47:26;101414.00;;;38.50
20733;BMP180;10527;52.124;5.196;2022-08-03T11:49:56;101406.00;;;38.50
20733;BMP180;10527;52.124;5.196;2022-08-03T11:52:26;101413.00;;;38.50
20733;BMP180;10527;52.124;5.196;2022-08-03T11:54:59;101419.00;;;38.60
20733;BMP180;10527;52.124;5.196;2022-08-03T11:57:31;101417.00;;;38.60
20733;BMP180;10527;52.124;5.196;2022-08-03T12:00:20;101422.00;;;38.60
20733;BMP180;10527;52.124;5.196;2022-08-03T12:08:32;101410.00;;;38.80
20733;BMP180;10527;52.124;5.196;2022-08-03T12:11:05;101428.00;;;38.80
20733;BMP180;10527;52.124;5.196;2022-08-03T12:13:48;101420.00;;;38.90
20733;BMP180;10527;52.124;5.196;2022-08-03T12:16:36;101422.00;;;38.90
20733;BMP180;10527;52.124;5.196;2022-08-03T12:19:05;101425.00;;;38.90
20733;BMP180;10527;52.124;5.196;2022-08-03T12:21:47;101416.00;;;38.90
20733;BMP180;10527;52.124;5.196;2022-08-03T12:24:43;101423.00;;;39.00
20733;BMP180;10527;52.124;5.196;2022-08-03T12:27:25;101419.00;;;39.00
20733;BMP180;10527;52.124;5.196;2022-08-03T12:29:57;101416.00;;;39.00
20733;BMP180;10527;52.124;5.196;2022-08-03T12:32:29;101422.00;;;39.10
20733;BMP180;10527;52.124;5.196;2022-08-03T12:34:58;101422.00;;;39.20
20733;BMP180;10527;52.124;5.196;2022-08-03T12:37:28;101416.00;;;39.20
20733;BMP180;10527;52.124;5.196;2022-08-03T12:39:58;101416.00;;;39.20
20733;BMP180;10527;52.124;5.196;2022-08-03T12:42:37;101418.00;;;39.30
20733;BMP180;10527;52.124;5.196;2022-08-03T12:45:21;101414.00;;;39.30
20733;BMP180;10527;52.124;5.196;2022-08-03T12:48:01;101417.00;;;39.30
20733;BMP180;10527;52.124;5.196;2022-08-03T12:50:35;101424.00;;;39.30
20733;BMP180;10527;52.124;5.196;2022-08-03T12:53:07;101415.00;;;39.30
20733;BMP180;10527;52.124;5.196;2022-08-03T12:55:38;101420.00;;;39.30
20733;BMP180;10527;52.124;5.196;2022-08-03T12:58:34;101417.00;;;39.30
20733;BMP180;10527;52.124;5.196;2022-08-03T13:01:04;101414.00;;;39.30
20733;BMP180;10527;52.124;5.196;2022-08-03T13:03:46;101418.00;;;39.30
20733;BMP180;10527;52.124;5.196;2022-08-03T13:06:23;101402.00;;;39.40
20733;BMP180;10527;52.124;5.196;2022-08-03T13:09:05;101407.00;;;39.40
20733;BMP180;10527;52.124;5.196;2022-08-03T13:11:33;101409.00;;;39.40
20733;BMP180;10527;52.124;5.196;2022-08-03T13:14:20;101413.00;;;39.50
20733;BMP180;10527;52.124;5.196;2022-08-03T13:16:47;101407.00;;;39.50
20733;BMP180;10527;52.124;5.196;2022-08-03T13:19:14;101414.00;;;39.60
20733;BMP180;10527;52.124;5.196;2022-08-03T13:21:44;101406.00;;;39.60
20733;BMP180;10527;52.124;5.196;2022-08-03T13:24:37;101403.00;;;39.60
20733;BMP180;10527;52.124;5.196;2022-08-03T13:27:04;101416.00;;;39.60
20733;BMP180;10527;52.124;5.196;2022-08-03T13:29:53;101414.00;;;39.70
20733;BMP180;10527;52.124;5.196;2022-08-03T13:32:22;101409.00;;;39.70
20733;BMP180;10527;52.124;5.196;2022-08-03T13:34:52;101404.00;;;39.70
20733;BMP180;10527;52.124;5.196;2022-08-03T13:37:19;101403.00;;;39.70
20733;BMP180;10527;52.124;5.196;2022-08-03T13:39:49;101409.00;;;39.70
20733;BMP180;10527;52.124;5.196;2022-08-03T13:42:27;101401.00;;;39.70
20733;BMP180;10527;52.124;5.196;2022-08-03T13:44:55;101409.00;;;39.70
20733;BMP180;10527;52.124;5.196;2022-08-03T13:47:22;101401.00;;;39.80
20733;BMP180;10527;52.124;5.196;2022-08-03T13:49:49;101407.00;;;39.80
20733;BMP180;10527;52.124;5.196;2022-08-03T13:52:35;101402.00;;;39.80
20733;BMP180;10527;52.124;5.196;2022-08-03T13:55:05;101408.00;;;39.80
20733;BMP180;10527;52.124;5.196;2022-08-03T13:57:32;101408.00;;;39.80
20733;BMP180;10527;52.124;5.196;2022-08-03T14:00:19;101409.00;;;39.90
20733;BMP180;10527;52.124;5.196;2022-08-03T14:02:59;101409.00;;;40.00
20733;BMP180;10527;52.124;5.196;2022-08-03T14:05:38;101405.00;;;40.00
20733;BMP180;10527;52.124;5.196;2022-08-03T14:08:07;101416.00;;;40.10
20733;BMP180;10527;52.124;5.196;2022-08-03T14:10:40;101410.00;;;40.10
20733;BMP180;10527;52.124;5.196;2022-08-03T14:13:12;101404.00;;;40.10
20733;BMP180;10527;52.124;5.196;2022-08-03T14:15:47;101393.00;;;40.10
20733;BMP180;10527;52.124;5.196;2022-08-03T14:18:18;101399.00;;;40.10
20733;BMP180;10527;52.124;5.196;2022-08-03T14:21:04;101392.00;;;40.10
20733;BMP180;10527;52.124;5.196;2022-08-03T14:23:34;101388.00;;;40.10
20733;BMP180;10527;52.124;5.196;2022-08-03T14:26:01;101385.00;;;40.20
20733;BMP180;10527;52.124;5.196;2022-08-03T14:28:28;101381.00;;;40.20
20733;BMP180;10527;52.124;5.196;2022-08-03T14:30:55;101380.00;;;40.30
20733;BMP180;10527;52.124;5.196;2022-08-03T14:33:22;101379.00;;;40.30
20733;BMP180;10527;52.124;5.196;2022-08-03T14:35:51;101385.00;;;40.40
20733;BMP180;10527;52.124;5.196;2022-08-03T14:38:17;101382.00;;;40.40
20733;BMP180;10527;52.124;5.196;2022-08-03T14:40:45;101384.00;;;40.50
20733;BMP180;10527;52.124;5.196;2022-08-03T14:43:13;101386.00;;;40.50
20733;BMP180;10527;52.124;5.196;2022-08-03T14:45:40;101377.00;;;40.50
20733;BMP180;10527;52.124;5.196;2022-08-03T14:48:08;101375.00;;;40.50
20733;BMP180;10527;52.124;5.196;2022-08-03T14:50:55;101369.00;;;40.50
20733;BMP180;10527;52.124;5.196;2022-08-03T14:53:27;101365.00;;;40.50
20733;BMP180;10527;52.124;5.196;2022-08-03T14:55:55;101373.00;;;40.50
20733;BMP180;10527;52.124;5.196;2022-08-03T14:58:23;101378.00;;;40.50